createdAt,value
2017-09-27T00:03:12.808Z,0
2017-09-27T00:13:12.792Z,0
2017-09-27T00:23:12.837Z,0
2017-09-27T00:33:12.791Z,0
2017-09-27T00:43:12.862Z,0
2017-09-27T00:53:13.972Z,0
2017-09-27T01:03:12.855Z,0
2017-09-27T01:13:27.650Z,0
2017-09-27T01:23:12.955Z,0
2017-09-27T01:33:12.885Z,0
2017-09-27T01:43:12.805Z,0
2017-09-27T01:53:12.945Z,0
2017-09-27T02:03:13.399Z,0
2017-09-27T02:13:12.857Z,0
2017-09-27T02:23:12.885Z,0
2017-09-27T02:33:12.831Z,0
2017-09-27T02:43:12.941Z,0
2017-09-27T02:53:12.928Z,0
2017-09-27T03:03:12.869Z,0
2017-09-27T03:13:13.936Z,0
2017-09-27T03:23:12.851Z,0
2017-09-27T03:33:12.803Z,0
2017-09-27T03:43:12.904Z,0
2017-09-27T03:53:12.852Z,0
2017-09-27T04:03:12.911Z,0
2017-09-27T04:13:12.866Z,0
2017-09-27T04:23:12.819Z,0
2017-09-27T04:33:12.917Z,0
2017-09-27T04:43:12.880Z,0
2017-09-27T04:53:12.801Z,0
2017-09-27T05:03:12.899Z,0
2017-09-27T05:13:12.835Z,0
2017-09-27T05:23:12.916Z,0
2017-09-27T05:33:12.857Z,0
2017-09-27T05:43:12.948Z,5
2017-09-27T05:53:12.964Z,10
2017-09-27T06:03:12.864Z,10
2017-09-27T06:13:12.944Z,15
2017-09-27T06:23:12.909Z,20
2017-09-27T06:33:13.579Z,25
2017-09-27T06:43:13.666Z,35
2017-09-27T06:53:12.870Z,40
2017-09-27T07:03:12.867Z,40
2017-09-27T07:13:12.835Z,40
2017-09-27T07:23:13.599Z,45
2017-09-27T07:33:12.830Z,55
2017-09-27T07:43:12.903Z,60
2017-09-27T07:53:12.886Z,70
2017-09-27T08:03:12.970Z,80
2017-09-27T08:13:12.949Z,80
2017-09-27T08:23:13.377Z,125
2017-09-27T08:33:12.923Z,135
2017-09-27T08:43:13.006Z,145
2017-09-27T08:53:12.914Z,165
2017-09-27T09:03:13.025Z,205
2017-09-27T09:13:12.997Z,195
2017-09-27T09:23:13.075Z,170
2017-09-27T09:33:13.007Z,145
2017-09-27T09:43:13.012Z,145
2017-09-27T09:53:13.040Z,135
2017-09-27T10:03:13.011Z,130
2017-09-27T10:13:13.065Z,130
2017-09-27T10:23:13.340Z,125
2017-09-27T10:33:12.977Z,120
2017-09-27T10:43:13.011Z,120
2017-09-27T10:53:13.062Z,120
2017-09-27T11:03:12.929Z,125
2017-09-27T11:13:13.025Z,120
2017-09-27T11:23:13.002Z,115
2017-09-27T11:33:13.065Z,120
2017-09-27T11:43:14.035Z,120
2017-09-27T11:53:13.171Z,120
2017-09-27T12:03:35.546Z,120
2017-09-27T12:13:13.044Z,120
2017-09-27T12:23:13.007Z,125
2017-09-27T12:33:13.048Z,105
2017-09-27T12:43:14.348Z,120
2017-09-27T12:53:13.302Z,120
2017-09-27T13:03:13.085Z,100
2017-09-27T13:13:12.935Z,90
2017-09-27T13:23:13.030Z,90
2017-09-27T13:33:14.200Z,90
2017-09-27T13:43:13.249Z,85
2017-09-27T13:53:13.262Z,85
2017-09-27T14:03:13.098Z,90
2017-09-27T14:13:13.013Z,85
2017-09-27T14:23:13.264Z,100
2017-09-27T14:33:13.311Z,95
2017-09-27T14:43:13.052Z,90
2017-09-27T14:53:13.075Z,80
2017-09-27T15:03:12.997Z,75
2017-09-27T15:13:13.641Z,70
2017-09-27T15:23:13.797Z,75
2017-09-27T15:33:12.998Z,70
2017-09-27T15:43:13.002Z,60
2017-09-27T15:53:12.971Z,55
2017-09-27T16:03:12.938Z,50
2017-09-27T16:13:13.031Z,45
2017-09-27T16:23:12.985Z,35
2017-09-27T16:33:12.946Z,25
2017-09-27T16:43:13.028Z,20
2017-09-27T16:53:14.020Z,15
2017-09-27T17:03:13.165Z,10
2017-09-27T17:13:12.979Z,5
2017-09-27T17:23:13.399Z,0
2017-09-27T17:33:13.067Z,0
2017-09-27T17:43:12.987Z,0
2017-09-27T17:53:13.059Z,0
2017-09-27T18:03:12.968Z,0
2017-09-27T18:13:13.946Z,0
2017-09-27T18:23:13.162Z,0
2017-09-27T18:33:13.031Z,0
2017-09-27T18:43:13.284Z,0
2017-09-27T18:53:12.968Z,0
2017-09-27T19:03:13.002Z,0
2017-09-27T19:13:12.987Z,0
2017-09-27T19:23:13.009Z,0
2017-09-27T19:33:13.098Z,0
2017-09-27T19:43:13.028Z,0
2017-09-27T19:53:13.044Z,0
2017-09-27T20:03:13.089Z,0
2017-09-27T20:13:13.012Z,0
2017-09-27T20:23:13.120Z,0
2017-09-27T20:33:13.098Z,0
2017-09-27T20:43:13.039Z,0
2017-09-27T20:53:12.924Z,0
2017-09-27T21:03:13.032Z,0
2017-09-27T21:13:13.167Z,0
2017-09-27T21:23:13.232Z,0
2017-09-27T21:33:13.219Z,0
2017-09-27T21:43:13.921Z,0
2017-09-27T21:53:14.080Z,0
2017-09-27T22:03:13.318Z,0
2017-09-27T22:13:15.356Z,0
2017-09-27T22:23:14.121Z,0
2017-09-27T22:33:13.322Z,0
2017-09-27T22:43:13.283Z,0
2017-09-27T22:53:13.194Z,0
2017-09-27T23:03:13.272Z,0
2017-09-27T23:13:13.351Z,0
2017-09-27T23:23:13.321Z,0
2017-09-27T23:33:16.136Z,0
2017-09-27T23:43:13.213Z,0
2017-09-27T23:53:13.226Z,0
